createdAt,value
2023-05-28T00:14:54.021Z,14.36
2023-05-28T00:15:54.481Z,14.53
2023-05-28T00:23:33.166Z,14.34
2023-05-28T00:24:32.774Z,14.52
2023-05-28T00:25:32.892Z,14.55
2023-05-28T00:26:32.791Z,14.56
2023-05-28T00:27:33.417Z,14.54
2023-05-28T00:35:01.605Z,14.42
2023-05-28T00:55:48.733Z,14.00
2023-05-28T00:59:05.950Z,13.87
2023-05-28T01:01:13.771Z,14.03
2023-05-28T01:02:13.657Z,14.08
2023-05-28T01:06:39.484Z,13.89
2023-05-28T01:14:13.020Z,13.54
2023-05-28T01:18:42.449Z,13.65
2023-05-28T01:27:47.093Z,13.49
2023-05-28T01:28:46.815Z,13.53
2023-05-28T01:29:46.802Z,13.56
2023-05-28T01:32:06.253Z,13.58
2023-05-28T01:33:06.376Z,13.60
2023-05-28T01:34:06.255Z,13.61
2023-05-28T01:36:59.963Z,13.35
2023-05-28T01:39:59.880Z,13.54
2023-05-28T01:40:59.762Z,13.59
2023-05-28T01:41:59.860Z,13.61
2023-05-28T01:43:00.292Z,13.65
2023-05-28T01:43:59.759Z,13.70
2023-05-28T01:44:59.718Z,13.76
2023-05-28T01:45:59.802Z,13.79
2023-05-28T01:46:59.681Z,13.85
2023-05-28T01:49:19.500Z,13.92
2023-05-28T01:52:32.232Z,13.79
2023-05-28T02:13:03.696Z,13.23
2023-05-28T02:16:00.947Z,13.12
2023-05-28T02:17:00.876Z,13.33
2023-05-28T02:18:00.796Z,13.37
2023-05-28T02:19:00.845Z,13.41
2023-05-28T02:20:00.850Z,13.46
2023-05-28T02:21:00.880Z,13.47
2023-05-28T02:22:01.128Z,13.48
2023-05-28T02:23:00.769Z,13.49
2023-05-28T02:24:00.768Z,13.50
2023-05-28T02:25:00.799Z,13.49
2023-05-28T02:26:00.774Z,13.50
2023-05-28T02:27:00.853Z,13.49
2023-05-28T02:28:00.772Z,13.50
2023-05-28T02:29:00.754Z,13.53
2023-05-28T02:30:00.815Z,13.50
2023-05-28T02:31:00.745Z,13.49
2023-05-28T02:32:00.811Z,13.47
2023-05-28T02:33:00.875Z,13.46
2023-05-28T02:34:00.697Z,13.43
2023-05-28T02:36:21.889Z,13.41
2023-05-28T02:39:13.923Z,13.16
2023-05-28T02:41:33.692Z,13.26
2023-05-28T02:42:34.174Z,13.30
2023-05-28T02:43:33.474Z,13.28
2023-05-28T02:44:33.519Z,13.27
2023-05-28T02:45:33.441Z,13.26
2023-05-28T02:46:33.600Z,13.25
2023-05-28T02:47:33.430Z,13.25
2023-05-28T02:48:33.785Z,13.26
2023-05-28T02:58:09.936Z,12.73
2023-05-28T03:03:25.613Z,12.61
2023-05-28T03:04:25.635Z,12.79
2023-05-28T03:09:21.590Z,12.50
2023-05-28T03:11:41.944Z,12.70
2023-05-28T03:12:41.901Z,12.75
2023-05-28T03:13:41.364Z,12.80
2023-05-28T03:14:40.986Z,12.82
2023-05-28T03:15:41.274Z,12.85
2023-05-28T03:33:58.522Z,12.63
2023-05-28T03:34:58.490Z,12.68
2023-05-28T03:35:59.258Z,12.71
2023-05-28T03:36:59.997Z,12.73
2023-05-28T03:37:59.034Z,12.74
2023-05-28T03:38:58.440Z,12.72
2023-05-28T03:44:25.551Z,12.46
2023-05-28T03:45:25.523Z,12.65
2023-05-28T03:46:26.779Z,12.68
2023-05-28T03:47:25.262Z,12.73
2023-05-28T03:48:25.443Z,12.78
2023-05-28T03:49:25.256Z,12.82
2023-05-28T03:50:25.859Z,12.84
2023-05-28T04:00:26.554Z,12.72
2023-05-28T04:01:26.676Z,12.95
2023-05-28T04:02:27.818Z,13.02
2023-05-28T04:03:26.690Z,13.02
2023-05-28T04:39:39.534Z,12.87
2023-05-28T04:51:14.183Z,13.16
2023-05-28T04:52:14.807Z,13.21
2023-05-28T04:53:13.808Z,13.27
2023-05-28T04:54:13.795Z,13.35
2023-05-28T04:55:13.762Z,13.44
2023-05-28T04:56:13.721Z,13.53
2023-05-28T04:57:13.905Z,13.61
2023-05-28T04:58:13.727Z,13.69
2023-05-28T04:59:14.032Z,13.72
2023-05-28T05:00:14.408Z,13.76
2023-05-28T05:01:13.775Z,13.83
2023-05-28T05:02:13.855Z,13.91
2023-05-28T05:03:13.959Z,13.96
2023-05-28T05:04:13.808Z,14.00
2023-05-28T05:05:13.965Z,14.04
2023-05-28T05:06:13.779Z,14.11
2023-05-28T05:07:13.837Z,14.15
2023-05-28T05:13:16.511Z,14.38
2023-05-28T05:14:16.019Z,14.52
2023-05-28T05:15:16.368Z,14.60
2023-05-28T05:16:16.199Z,14.65
2023-05-28T05:17:16.147Z,14.72
2023-05-28T05:23:12.735Z,15.00
2023-05-28T05:23:59.637Z,15.14
2023-05-28T05:24:59.176Z,15.06
2023-05-28T05:29:34.871Z,14.83
2023-05-28T05:30:35.246Z,14.94
2023-05-28T05:31:35.823Z,15.01
2023-05-28T05:32:35.410Z,15.09
2023-05-28T05:33:35.623Z,15.18
2023-05-28T05:34:34.770Z,15.27
2023-05-28T05:35:35.560Z,15.36
2023-05-28T05:36:35.225Z,15.42
2023-05-28T05:41:01.989Z,15.51
2023-05-28T05:42:02.934Z,15.56
2023-05-28T05:43:02.272Z,15.60
2023-05-28T05:44:02.942Z,15.63
2023-05-28T05:45:02.240Z,15.64
2023-05-28T05:46:02.330Z,15.66
2023-05-28T05:54:26.506Z,15.39
2023-05-28T05:55:27.151Z,15.56
2023-05-28T05:56:26.336Z,15.56
2023-05-28T06:01:50.973Z,15.21
2023-05-28T06:04:56.638Z,15.18
2023-05-28T06:05:56.014Z,15.32
2023-05-28T06:06:56.111Z,15.35
2023-05-28T06:07:56.223Z,15.39
2023-05-28T06:08:55.778Z,15.42
2023-05-28T06:09:55.700Z,15.44
2023-05-28T06:10:55.697Z,15.46
2023-05-28T06:21:41.620Z,15.41
2023-05-28T06:22:42.518Z,15.42
2023-05-28T06:28:26.293Z,15.33
2023-05-28T06:29:26.109Z,15.41
2023-05-28T06:30:26.401Z,15.46
2023-05-28T06:31:25.952Z,15.52
2023-05-28T06:32:26.046Z,15.55
2023-05-28T06:33:26.011Z,15.59
2023-05-28T06:34:26.025Z,15.64
2023-05-28T06:35:25.940Z,15.67
2023-05-28T06:40:21.636Z,15.56
2023-05-28T06:44:51.295Z,15.67
2023-05-28T06:45:52.225Z,15.65
2023-05-28T06:46:51.950Z,15.68
2023-05-28T06:47:51.201Z,15.74
2023-05-28T06:48:51.153Z,15.75
2023-05-28T06:49:51.110Z,15.70
2023-05-28T06:50:51.144Z,15.69
2023-05-28T06:51:51.108Z,15.66
2023-05-28T06:52:51.118Z,15.59
2023-05-28T06:53:51.178Z,15.69
2023-05-28T06:54:51.164Z,15.77
2023-05-28T06:55:51.253Z,15.83
2023-05-28T06:56:51.171Z,15.90
2023-05-28T06:57:51.082Z,15.95
2023-05-28T06:58:51.072Z,15.98
2023-05-28T06:59:51.109Z,16.02
2023-05-28T07:00:51.077Z,15.96
2023-05-28T07:06:07.396Z,15.71
2023-05-28T07:07:06.143Z,15.79
2023-05-28T07:08:07.080Z,15.87
2023-05-28T07:09:06.475Z,15.94
2023-05-28T07:10:06.216Z,15.97
2023-05-28T07:11:06.064Z,16.01
2023-05-28T07:15:26.627Z,15.99
2023-05-28T07:16:26.089Z,16.08
2023-05-28T07:17:26.073Z,16.14
2023-05-28T07:18:26.038Z,16.19
2023-05-28T07:19:26.151Z,16.27
2023-05-28T07:20:26.274Z,16.27
2023-05-28T07:21:26.068Z,16.30
2023-05-28T07:22:25.990Z,16.33
2023-05-28T07:23:26.033Z,16.34
2023-05-28T07:24:25.999Z,16.38
2023-05-28T07:25:26.027Z,16.39
2023-05-28T07:26:26.033Z,16.38
2023-05-28T07:27:26.030Z,16.39
2023-05-28T07:28:25.996Z,16.43
2023-05-28T07:29:25.993Z,16.46
2023-05-28T07:30:26.020Z,16.49
2023-05-28T07:31:26.042Z,16.55
2023-05-28T07:32:26.060Z,16.59
2023-05-28T07:33:26.950Z,16.64
2023-05-28T07:34:26.012Z,16.66
2023-05-28T07:35:26.062Z,16.64
2023-05-28T07:36:26.029Z,16.64
2023-05-28T07:37:26.099Z,16.67
2023-05-28T07:38:26.153Z,16.60
2023-05-28T07:39:26.162Z,16.61
2023-05-28T07:40:26.173Z,16.60
2023-05-28T07:41:26.185Z,16.65
2023-05-28T07:42:26.197Z,16.69
2023-05-28T07:43:26.174Z,16.69
2023-05-28T07:45:45.761Z,16.63
2023-05-28T07:46:45.739Z,16.68
2023-05-28T07:47:45.778Z,16.70
2023-05-28T07:48:45.710Z,16.72
2023-05-28T07:49:45.756Z,16.75
2023-05-28T07:50:46.681Z,16.84
2023-05-28T07:51:45.843Z,16.93
2023-05-28T07:52:45.957Z,16.92
2023-05-28T07:53:45.805Z,16.97
2023-05-28T07:54:45.792Z,17.04
2023-05-28T07:55:45.806Z,17.13
2023-05-28T08:00:52.994Z,17.31
2023-05-28T08:01:52.902Z,17.42
2023-05-28T08:02:54.232Z,17.50
2023-05-28T08:07:45.927Z,17.38
2023-05-28T08:10:05.143Z,17.40
2023-05-28T08:11:05.064Z,17.52
2023-05-28T08:12:05.278Z,17.65
2023-05-28T08:13:05.623Z,17.67
2023-05-28T08:16:58.439Z,17.59
2023-05-28T08:17:59.008Z,17.81
2023-05-28T08:18:58.330Z,17.81
2023-05-28T08:20:01.720Z,17.86
2023-05-28T08:25:31.738Z,17.74
2023-05-28T08:26:31.407Z,17.91
2023-05-28T08:27:31.398Z,17.89
2023-05-28T08:28:32.016Z,17.95
2023-05-28T08:31:38.203Z,17.87
2023-05-28T08:36:45.280Z,17.89
2023-05-28T08:39:59.055Z,17.96
2023-05-28T08:40:46.514Z,18.12
2023-05-28T08:41:46.980Z,18.06
2023-05-28T08:42:46.835Z,18.05
2023-05-28T08:43:46.738Z,18.08
2023-05-28T08:44:46.741Z,18.19
2023-05-28T08:45:46.377Z,18.31
2023-05-28T08:46:46.466Z,18.36
2023-05-28T08:47:46.540Z,18.41
2023-05-28T08:48:46.364Z,18.42
2023-05-28T08:49:46.363Z,18.31
2023-05-28T08:50:46.308Z,18.41
2023-05-28T08:51:46.502Z,18.54
2023-05-28T08:56:34.848Z,18.18
2023-05-28T08:59:28.240Z,18.29
2023-05-28T09:00:27.911Z,18.55
2023-05-28T09:01:28.307Z,18.71
2023-05-28T09:02:27.959Z,18.83
2023-05-28T09:03:28.101Z,18.90
2023-05-28T09:04:29.930Z,18.96
2023-05-28T09:05:27.904Z,19.05
2023-05-28T09:06:27.977Z,19.14
2023-05-28T09:07:27.815Z,19.15
2023-05-28T09:08:27.775Z,19.17
2023-05-28T09:09:27.866Z,19.27
2023-05-28T09:10:27.871Z,19.35
2023-05-28T09:11:27.886Z,19.38
2023-05-28T09:12:27.928Z,19.37
2023-05-28T09:13:27.900Z,19.45
2023-05-28T09:14:27.963Z,19.51
2023-05-28T09:15:28.027Z,19.57
2023-05-28T09:16:28.152Z,19.64
2023-05-28T09:17:27.910Z,19.63
2023-05-28T09:18:28.057Z,19.54
2023-05-28T09:19:27.919Z,19.31
2023-05-28T09:20:27.919Z,19.40
2023-05-28T09:21:27.856Z,19.53
2023-05-28T09:22:28.213Z,19.65
2023-05-28T09:23:27.857Z,19.73
2023-05-28T09:24:28.003Z,19.82
2023-05-28T09:28:33.946Z,19.95
2023-05-28T09:30:53.349Z,20.11
2023-05-28T09:31:53.554Z,20.16
2023-05-28T09:32:53.528Z,20.25
2023-05-28T09:33:53.099Z,20.35
2023-05-28T09:34:52.859Z,20.42
2023-05-28T09:35:52.994Z,20.47
2023-05-28T09:36:52.852Z,20.56
2023-05-28T09:37:52.940Z,20.50
2023-05-28T09:38:52.916Z,20.58
2023-05-28T09:39:53.284Z,20.64
2023-05-28T09:40:52.855Z,20.69
2023-05-28T09:48:25.049Z,20.61
2023-05-28T09:49:24.432Z,20.80
2023-05-28T09:50:24.579Z,20.85
2023-05-28T09:51:25.815Z,20.87
2023-05-28T09:52:25.424Z,20.94
2023-05-28T09:53:24.423Z,21.02
2023-05-28T09:54:24.372Z,21.12
2023-05-28T09:55:24.368Z,21.17
2023-05-28T09:56:24.457Z,21.21
2023-05-28T09:57:24.549Z,21.25
2023-05-28T09:58:24.341Z,21.42
2023-05-28T09:59:24.353Z,21.64
2023-05-28T10:00:24.405Z,21.85
2023-05-28T10:08:43.053Z,24.25
2023-05-28T10:09:42.556Z,24.54
2023-05-28T10:12:33.838Z,24.90
2023-05-28T10:13:33.571Z,24.99
2023-05-28T10:14:33.855Z,25.16
2023-05-28T10:15:33.534Z,25.48
2023-05-28T10:16:33.568Z,25.79
2023-05-28T10:21:36.538Z,25.35
2023-05-28T10:22:36.346Z,25.82
2023-05-28T10:23:36.870Z,25.53
2023-05-28T10:24:36.753Z,25.29
2023-05-28T10:25:36.435Z,25.23
2023-05-28T10:26:36.470Z,25.30
2023-05-28T10:27:37.197Z,25.24
2023-05-28T10:28:36.140Z,25.09
2023-05-28T10:31:24.583Z,24.47
2023-05-28T10:32:25.179Z,24.82
2023-05-28T10:40:28.947Z,27.34
2023-05-28T10:41:17.026Z,27.47
2023-05-28T10:42:17.874Z,27.47
2023-05-28T10:43:17.298Z,27.71
2023-05-28T10:44:18.253Z,28.54
2023-05-28T10:45:18.222Z,29.32
2023-05-28T10:46:17.742Z,30.07
2023-05-28T10:47:17.316Z,30.31
2023-05-28T10:52:26.055Z,31.14
2023-05-28T10:53:13.314Z,31.68
2023-05-28T10:54:13.425Z,31.69
2023-05-28T10:55:13.340Z,32.09
2023-05-28T10:56:14.038Z,32.21
2023-05-28T10:57:14.077Z,32.33
2023-05-28T10:58:13.572Z,32.41
2023-05-28T11:08:54.591Z,32.06
2023-05-28T11:18:45.478Z,32.52
2023-05-28T11:19:45.327Z,33.02
2023-05-28T11:26:58.042Z,30.07
2023-05-28T11:27:57.595Z,31.08
2023-05-28T11:28:57.833Z,31.59
2023-05-28T11:29:57.746Z,32.13
2023-05-28T11:30:58.828Z,32.22
2023-05-28T11:31:57.613Z,33.01
2023-05-28T11:45:39.804Z,31.78
2023-05-28T11:46:39.571Z,31.14
2023-05-28T11:47:39.741Z,31.35
2023-05-28T11:48:40.180Z,31.16
2023-05-28T11:49:39.600Z,31.36
2023-05-28T11:50:39.669Z,31.33
2023-05-28T11:51:39.684Z,31.34
2023-05-28T11:52:39.771Z,30.94
2023-05-28T11:53:39.747Z,30.68
2023-05-28T11:54:39.800Z,31.04
2023-05-28T11:55:39.779Z,31.45
2023-05-28T11:56:39.881Z,31.53
2023-05-28T12:22:44.890Z,27.59
2023-05-28T12:23:44.869Z,27.92
2023-05-28T12:24:44.928Z,28.02
2023-05-28T12:25:45.105Z,27.95
2023-05-28T12:26:44.845Z,27.82
2023-05-28T12:27:44.747Z,27.33
2023-05-28T12:28:44.758Z,27.04
2023-05-28T12:29:44.743Z,26.91
2023-05-28T12:30:44.739Z,27.09
2023-05-28T12:31:44.871Z,27.12
2023-05-28T12:32:44.765Z,27.33
2023-05-28T12:33:44.726Z,27.53
2023-05-28T12:34:44.686Z,27.74
2023-05-28T12:35:44.735Z,27.62
2023-05-28T12:36:44.760Z,27.34
2023-05-28T12:37:44.674Z,26.67
2023-05-28T12:38:44.695Z,26.48
2023-05-28T12:39:44.688Z,26.66
2023-05-28T12:40:44.684Z,26.53
2023-05-28T12:41:44.888Z,26.62
2023-05-28T14:12:30.671Z,25.48
2023-05-28T14:13:30.572Z,25.80
2023-05-28T14:14:30.728Z,25.96
2023-05-28T14:15:30.901Z,26.11
2023-05-28T14:16:31.231Z,26.32
2023-05-28T14:17:31.244Z,26.44
2023-05-28T14:18:30.596Z,26.37
2023-05-28T14:19:30.596Z,26.34
2023-05-28T14:20:30.650Z,26.12
2023-05-28T14:21:30.545Z,26.10
2023-05-28T14:22:30.541Z,26.08
2023-05-28T14:42:02.739Z,24.14
2023-05-28T14:43:02.719Z,24.27
2023-05-28T14:44:02.835Z,24.35
2023-05-28T14:45:02.841Z,24.37
2023-05-28T14:46:02.969Z,24.34
2023-05-28T14:47:03.104Z,24.41
2023-05-28T14:48:02.981Z,24.46
2023-05-28T14:49:02.931Z,24.50
2023-05-28T14:50:02.873Z,24.50
2023-05-28T14:51:03.151Z,23.77
2023-05-28T14:52:02.975Z,23.35
2023-05-28T14:53:03.017Z,23.43
2023-05-28T14:54:03.103Z,23.19
2023-05-28T14:55:04.067Z,23.36
2023-05-28T14:56:03.103Z,23.48
2023-05-28T14:57:03.214Z,23.66
2023-05-28T14:58:03.247Z,23.47
2023-05-28T14:59:03.238Z,23.22
2023-05-28T15:00:03.349Z,22.93
2023-05-28T15:01:03.463Z,23.05
2023-05-28T15:02:03.356Z,22.74
2023-05-28T15:03:03.485Z,22.31
2023-05-28T15:04:03.571Z,21.71
2023-05-28T15:05:03.487Z,21.69
2023-05-28T15:06:03.624Z,21.98
2023-05-28T15:07:03.615Z,21.94
2023-05-28T15:08:03.598Z,22.01
2023-05-28T15:09:03.613Z,22.07
2023-05-28T15:10:03.622Z,22.10
2023-05-28T15:11:03.731Z,22.11
2023-05-28T15:12:03.744Z,21.92
2023-05-28T15:13:03.719Z,22.00
2023-05-28T15:14:03.755Z,22.05
2023-05-28T15:19:11.663Z,21.73
2023-05-28T15:22:20.118Z,22.04
2023-05-28T15:38:43.736Z,22.04
2023-05-28T15:39:43.109Z,21.96
2023-05-28T15:40:42.939Z,21.71
2023-05-28T15:41:43.749Z,21.64
2023-05-28T15:42:43.639Z,21.76
2023-05-28T15:43:42.951Z,21.96
2023-05-28T15:44:42.965Z,22.15
2023-05-28T15:45:42.973Z,22.32
2023-05-28T15:46:42.978Z,22.46
2023-05-28T15:47:42.989Z,22.52
2023-05-28T15:48:42.902Z,22.61
2023-05-28T15:49:43.037Z,22.66
2023-05-28T15:50:42.999Z,22.71
2023-05-28T15:51:42.921Z,22.74
2023-05-28T15:52:42.881Z,22.80
2023-05-28T15:53:42.891Z,22.87
2023-05-28T15:54:42.877Z,22.85
2023-05-28T15:55:42.934Z,22.51
2023-05-28T15:56:42.909Z,22.57
2023-05-28T15:57:42.856Z,22.68
2023-05-28T15:58:42.864Z,22.74
2023-05-28T15:59:43.091Z,22.77
2023-05-28T16:00:42.812Z,22.77
2023-05-28T16:01:42.909Z,22.84
2023-05-28T16:02:42.962Z,22.85
2023-05-28T16:03:42.883Z,22.79
2023-05-28T16:04:42.780Z,22.74
2023-05-28T16:05:42.790Z,22.82
2023-05-28T16:06:42.798Z,22.94
2023-05-28T16:07:42.800Z,23.05
2023-05-28T16:08:43.662Z,23.15
2023-05-28T16:09:42.740Z,23.21
2023-05-28T16:10:42.851Z,23.18
2023-05-28T16:11:42.732Z,23.09
2023-05-28T16:12:43.655Z,23.12
2023-05-28T16:13:42.751Z,23.18
2023-05-28T16:14:42.750Z,23.08
2023-05-28T16:34:50.924Z,22.32
2023-05-28T16:40:42.411Z,22.18
2023-05-28T16:41:43.269Z,22.14
2023-05-28T16:42:42.803Z,22.07
2023-05-28T16:43:43.813Z,22.14
2023-05-28T16:44:44.219Z,22.19
2023-05-28T16:45:42.375Z,22.23
2023-05-28T16:46:42.343Z,22.22
2023-05-28T16:47:42.435Z,22.22
2023-05-28T16:48:42.400Z,22.26
2023-05-28T16:49:42.306Z,22.23
2023-05-28T16:55:48.718Z,21.78
2023-05-28T17:02:49.341Z,21.59
2023-05-28T17:03:49.381Z,21.80
2023-05-28T17:04:49.404Z,21.86
2023-05-28T17:05:49.212Z,21.91
2023-05-28T17:06:49.216Z,21.90
2023-05-28T17:11:03.737Z,21.64
2023-05-28T17:11:50.790Z,21.66
2023-05-28T17:12:50.814Z,21.63
2023-05-28T17:17:10.696Z,21.63
2023-05-28T17:22:01.416Z,21.18
2023-05-28T17:23:01.209Z,21.44
2023-05-28T17:24:01.208Z,21.51
2023-05-28T17:25:01.150Z,21.55
2023-05-28T17:28:17.933Z,21.50
2023-05-28T17:31:27.936Z,21.56
2023-05-28T17:39:33.784Z,21.39
2023-05-28T17:49:58.317Z,21.16
2023-05-28T17:50:58.318Z,21.39
2023-05-28T17:51:58.521Z,21.45
2023-05-28T17:54:17.613Z,21.47
2023-05-28T17:55:17.609Z,21.52
2023-05-28T18:05:11.116Z,21.30
2023-05-28T18:06:11.042Z,21.36
2023-05-28T18:07:11.743Z,21.38
2023-05-28T18:08:11.158Z,21.40
2023-05-28T18:09:11.275Z,21.40
2023-05-28T18:10:11.119Z,21.40
2023-05-28T18:11:11.045Z,21.42
2023-05-28T18:12:11.074Z,21.36
2023-05-28T18:13:11.033Z,21.35
2023-05-28T18:14:11.043Z,21.39
2023-05-28T18:15:10.990Z,21.37
2023-05-28T18:16:11.441Z,21.37
2023-05-28T18:28:55.793Z,20.83
2023-05-28T18:32:03.461Z,20.79
2023-05-28T18:33:03.755Z,20.96
2023-05-28T18:37:34.798Z,20.91
2023-05-28T18:38:34.804Z,20.94
2023-05-28T18:39:35.242Z,20.93
2023-05-28T18:44:48.474Z,20.52
2023-05-28T18:45:36.497Z,20.66
2023-05-28T18:46:36.625Z,20.68
2023-05-28T18:47:36.599Z,20.67
2023-05-28T18:50:30.184Z,20.43
2023-05-28T18:53:20.659Z,20.40
2023-05-28T18:54:20.989Z,20.60
2023-05-28T18:55:20.385Z,20.63
2023-05-28T19:03:55.621Z,20.21
2023-05-28T19:04:55.552Z,20.23
2023-05-28T19:08:59.714Z,19.93
2023-05-28T19:13:19.268Z,19.51
2023-05-28T19:14:19.190Z,19.66
2023-05-28T19:15:19.197Z,19.65
2023-05-28T19:18:54.138Z,19.28
2023-05-28T19:21:13.672Z,19.16
2023-05-28T19:26:53.263Z,18.94
2023-05-28T19:27:54.193Z,18.86
2023-05-28T19:31:34.145Z,18.22
2023-05-28T19:32:34.363Z,18.35
2023-05-28T19:33:34.976Z,18.37
2023-05-28T19:40:43.495Z,17.82
2023-05-28T19:43:56.123Z,17.67
2023-05-28T19:44:54.954Z,17.80
2023-05-28T19:45:55.253Z,17.82
2023-05-28T19:46:54.908Z,17.86
2023-05-28T19:47:54.889Z,17.87
2023-05-28T19:48:54.822Z,17.89
2023-05-28T19:49:54.855Z,17.85
2023-05-28T19:50:55.175Z,17.83
2023-05-28T19:53:43.724Z,17.59
2023-05-28T19:54:43.706Z,17.76
2023-05-28T19:55:43.728Z,17.78
2023-05-28T19:56:43.763Z,17.79
2023-05-28T20:01:01.302Z,17.37
2023-05-28T20:02:00.727Z,17.46
2023-05-28T20:03:00.714Z,17.46
2023-05-28T20:04:00.584Z,17.50
2023-05-28T20:07:53.390Z,17.13
2023-05-28T20:08:43.353Z,17.28
2023-05-28T20:11:02.974Z,17.13
2023-05-28T20:13:56.654Z,16.95
2023-05-28T20:18:40.739Z,16.93
2023-05-28T20:21:31.712Z,16.56
2023-05-28T20:22:31.024Z,16.71
2023-05-28T20:23:32.382Z,16.71
2023-05-28T20:31:17.049Z,16.23
2023-05-28T20:34:16.281Z,16.13
2023-05-28T20:35:16.087Z,16.32
2023-05-28T20:36:16.261Z,16.36
2023-05-28T20:37:16.099Z,16.39
2023-05-28T20:38:16.106Z,16.41
2023-05-28T20:39:16.117Z,16.44
2023-05-28T20:40:16.343Z,16.41
2023-05-28T20:41:16.319Z,16.40
2023-05-28T20:42:16.475Z,16.41
2023-05-28T20:50:21.408Z,16.15
2023-05-28T20:51:11.171Z,16.30
2023-05-28T20:52:11.151Z,16.31
2023-05-28T20:53:11.468Z,16.30
2023-05-28T20:54:11.103Z,16.31
2023-05-28T20:55:11.060Z,16.33
2023-05-28T20:56:11.223Z,16.35
2023-05-28T20:57:11.017Z,16.36
2023-05-28T21:00:12.040Z,16.16
2023-05-28T21:03:06.461Z,16.15
2023-05-28T21:06:02.851Z,16.39
2023-05-28T21:07:02.846Z,16.39
2023-05-28T21:08:03.767Z,16.35
2023-05-28T21:09:02.794Z,16.36
2023-05-28T21:10:03.389Z,16.33
2023-05-28T21:11:04.225Z,16.28
2023-05-28T21:14:03.319Z,15.87
2023-05-28T21:17:43.654Z,15.74
2023-05-28T21:20:14.979Z,15.68
2023-05-28T21:21:13.835Z,15.85
2023-05-28T21:22:13.813Z,15.82
2023-05-28T21:24:34.303Z,15.82
2023-05-28T21:25:33.604Z,15.86
2023-05-28T21:26:36.409Z,15.85
2023-05-28T21:27:33.497Z,15.85
2023-05-28T21:28:33.603Z,15.83
2023-05-28T21:29:33.509Z,15.84
2023-05-28T21:30:33.534Z,15.86
2023-05-28T21:36:58.372Z,15.55
2023-05-28T21:37:58.087Z,15.67
2023-05-28T21:40:19.744Z,15.55
2023-05-28T21:41:17.828Z,15.59
2023-05-28T21:42:17.837Z,15.62
2023-05-28T21:43:17.842Z,15.66
2023-05-28T21:44:18.391Z,15.67
2023-05-28T21:50:13.025Z,15.36
2023-05-28T21:51:12.252Z,15.54
2023-05-28T21:56:54.583Z,15.34
2023-05-28T21:57:52.976Z,15.38
2023-05-28T21:58:54.839Z,15.42
2023-05-28T21:59:52.979Z,15.42
2023-05-28T22:00:53.189Z,15.41
2023-05-28T22:01:52.955Z,15.40
2023-05-28T22:02:52.977Z,15.39
2023-05-28T22:03:53.007Z,15.35
2023-05-28T22:04:52.908Z,15.30
2023-05-28T22:05:52.912Z,15.28
2023-05-28T22:06:53.074Z,15.27
2023-05-28T22:09:41.603Z,15.03
2023-05-28T22:10:41.983Z,15.15
2023-05-28T22:11:41.288Z,15.17
2023-05-28T22:12:41.875Z,15.18
2023-05-28T22:13:41.223Z,15.16
2023-05-28T22:14:41.512Z,15.16
2023-05-28T22:17:49.985Z,14.92
2023-05-28T22:23:02.464Z,14.76
2023-05-28T22:24:02.166Z,14.93
2023-05-28T22:32:24.570Z,14.58
2023-05-28T22:38:46.487Z,14.47
2023-05-28T22:39:46.412Z,14.54
2023-05-28T22:45:46.804Z,14.31
2023-05-28T22:46:36.194Z,14.50
2023-05-28T22:56:16.033Z,14.25
2023-05-28T22:57:15.594Z,14.42
2023-05-28T22:58:15.714Z,14.45
2023-05-28T22:59:16.769Z,14.46
2023-05-28T23:02:34.112Z,14.22
2023-05-28T23:03:34.228Z,14.40
2023-05-28T23:08:43.344Z,14.13
2023-05-28T23:09:43.793Z,14.30
2023-05-28T23:12:44.960Z,14.03
2023-05-28T23:13:44.475Z,14.22
2023-05-28T23:14:44.615Z,14.24
2023-05-28T23:15:44.621Z,14.23
2023-05-28T23:16:44.750Z,14.23
2023-05-28T23:17:44.537Z,14.24
2023-05-28T23:18:44.792Z,14.26
2023-05-28T23:19:44.648Z,14.27
2023-05-28T23:20:45.536Z,14.27
2023-05-28T23:21:44.934Z,14.29
2023-05-28T23:22:44.432Z,14.31
2023-05-28T23:35:29.151Z,13.78
2023-05-28T23:36:28.997Z,13.96
2023-05-28T23:37:28.946Z,13.95
2023-05-28T23:38:29.096Z,13.95
2023-05-28T23:39:29.985Z,13.97
2023-05-28T23:40:29.742Z,13.94
2023-05-28T23:42:48.580Z,13.87
2023-05-28T23:43:48.947Z,13.89
2023-05-28T23:50:08.401Z,13.64
2023-05-28T23:51:08.981Z,13.68
2023-05-28T23:56:06.961Z,13.30
2023-05-28T23:57:06.473Z,13.48
